createdAt,value
2019-01-17T00:00:36.007Z,6.94
2019-01-17T00:02:11.702Z,6.92
2019-01-17T00:03:34.656Z,6.91
2019-01-17T00:04:58.261Z,6.86
2019-01-17T00:06:28.000Z,6.88
2019-01-17T00:07:51.695Z,6.88
2019-01-17T00:09:03.257Z,6.90
2019-01-17T00:10:30.940Z,6.88
2019-01-17T00:11:53.504Z,6.91
2019-01-17T00:13:16.424Z,6.95
2019-01-17T00:14:43.828Z,6.91
2019-01-17T00:16:14.730Z,6.93
2019-01-17T00:17:46.698Z,6.93
2019-01-17T00:19:12.383Z,6.92
2019-01-17T00:20:35.368Z,6.93
2019-01-17T00:21:56.942Z,6.95
2019-01-17T00:23:24.049Z,6.92
2019-01-17T00:24:39.607Z,6.93
2019-01-17T00:26:04.132Z,6.94
2019-01-17T00:27:34.013Z,6.92
2019-01-17T00:28:57.122Z,6.94
2019-01-17T00:30:21.345Z,6.91
2019-01-17T00:31:39.354Z,6.93
2019-01-17T00:32:54.827Z,6.92
2019-01-17T00:34:18.171Z,6.92
2019-01-17T00:35:42.297Z,6.93
2019-01-17T00:37:02.012Z,6.94
2019-01-17T00:38:26.350Z,6.93
2019-01-17T00:39:50.847Z,6.95
2019-01-17T00:41:21.008Z,6.91
2019-01-17T00:42:48.267Z,6.94
2019-01-17T00:44:18.165Z,6.92
2019-01-17T00:45:43.627Z,6.94
2019-01-17T00:47:22.084Z,6.91
2019-01-17T00:48:34.261Z,6.90
2019-01-17T00:49:58.391Z,6.86
2019-01-17T00:51:21.037Z,6.91
2019-01-17T00:52:56.313Z,6.91
2019-01-17T00:54:15.186Z,6.92
2019-01-17T00:55:38.126Z,6.90
2019-01-17T00:57:08.079Z,6.93
2019-01-17T00:58:30.635Z,6.91
2019-01-17T00:59:58.063Z,6.89
2019-01-17T01:01:10.807Z,6.92
2019-01-17T01:02:37.633Z,6.89
2019-01-17T01:04:05.237Z,6.93
2019-01-17T01:05:47.529Z,6.90
2019-01-17T01:07:13.661Z,6.91
2019-01-17T01:08:40.912Z,6.94
2019-01-17T01:10:03.451Z,6.85
2019-01-17T01:11:24.233Z,6.87
2019-01-17T01:12:47.305Z,6.92
2019-01-17T01:14:11.153Z,6.89
2019-01-17T01:15:38.141Z,6.89
2019-01-17T01:17:11.882Z,6.86
2019-01-17T01:18:32.574Z,6.86
2019-01-17T01:19:57.898Z,6.89
2019-01-17T01:21:16.592Z,6.84
2019-01-17T01:22:46.399Z,6.83
2019-01-17T01:24:16.597Z,6.80
2019-01-17T01:25:39.520Z,6.78
2019-01-17T01:27:18.622Z,6.82
2019-01-17T01:28:41.590Z,6.83
2019-01-17T01:30:05.382Z,6.80
2019-01-17T01:31:47.822Z,6.78
2019-01-17T01:33:12.036Z,6.82
2019-01-17T01:34:44.866Z,6.78
2019-01-17T01:36:14.513Z,6.79
2019-01-17T01:37:43.303Z,6.80
2019-01-17T01:39:13.159Z,6.77
2019-01-17T01:40:33.999Z,6.78
2019-01-17T01:41:58.232Z,6.81
2019-01-17T01:43:22.023Z,6.82
2019-01-17T01:44:53.602Z,6.78
2019-01-17T01:46:36.283Z,6.79
2019-01-17T01:48:10.356Z,6.73
2019-01-17T01:49:29.685Z,6.78
2019-01-17T01:50:53.105Z,6.82
2019-01-17T01:52:05.649Z,6.78
2019-01-17T01:53:11.044Z,6.76
2019-01-17T01:54:21.881Z,6.74
2019-01-17T01:55:23.011Z,6.74
2019-01-17T01:56:28.153Z,6.80
2019-01-17T01:57:33.206Z,6.72
2019-01-17T01:58:38.612Z,6.75
2019-01-17T01:59:43.889Z,6.73
2019-01-17T02:00:49.592Z,6.74
2019-01-17T02:01:54.944Z,6.75
2019-01-17T02:03:00.692Z,6.72
2019-01-17T02:04:07.163Z,6.75
2019-01-17T02:05:12.791Z,6.73
2019-01-17T02:06:18.203Z,6.70
2019-01-17T02:07:23.216Z,6.69
2019-01-17T02:08:28.409Z,6.71
2019-01-17T02:09:33.826Z,6.68
2019-01-17T02:10:38.492Z,6.72
2019-01-17T02:11:43.545Z,6.70
2019-01-17T02:12:48.553Z,6.70
2019-01-17T02:13:55.150Z,6.69
2019-01-17T02:15:00.868Z,6.73
2019-01-17T02:16:05.663Z,6.71
2019-01-17T02:17:11.128Z,6.65
2019-01-17T02:18:15.668Z,6.68
2019-01-17T02:19:21.670Z,6.67
2019-01-17T02:20:27.093Z,6.67
2019-01-17T02:21:32.694Z,6.67
2019-01-17T02:22:37.577Z,6.67
2019-01-17T02:23:42.695Z,6.65
2019-01-17T02:24:47.935Z,6.67
2019-01-17T02:25:53.142Z,6.64
2019-01-17T02:27:01.775Z,6.69
2019-01-17T02:28:07.133Z,6.70
2019-01-17T02:29:12.705Z,6.68
2019-01-17T02:30:17.992Z,6.69
2019-01-17T02:31:22.928Z,6.71
2019-01-17T02:32:27.733Z,6.75
2019-01-17T02:33:33.348Z,6.70
2019-01-17T02:34:38.988Z,6.70
2019-01-17T02:35:44.617Z,6.70
2019-01-17T02:36:50.375Z,6.65
2019-01-17T02:37:55.319Z,6.70
2019-01-17T02:39:00.902Z,6.64
2019-01-17T02:40:06.298Z,6.64
2019-01-17T02:41:11.671Z,6.69
2019-01-17T02:42:16.522Z,6.66
2019-01-17T02:43:21.692Z,6.65
2019-01-17T02:44:26.914Z,6.66
2019-01-17T02:45:31.778Z,6.69
2019-01-17T02:46:37.119Z,6.66
2019-01-17T02:47:42.133Z,6.66
2019-01-17T02:48:47.758Z,6.68
2019-01-17T02:49:52.297Z,6.68
2019-01-17T02:50:57.247Z,6.64
2019-01-17T02:52:02.161Z,6.68
2019-01-17T02:53:07.740Z,6.66
2019-01-17T02:54:12.628Z,6.63
2019-01-17T02:55:17.978Z,6.60
2019-01-17T02:56:23.017Z,6.65
2019-01-17T02:57:27.599Z,6.60
2019-01-17T02:58:32.479Z,6.62
2019-01-17T02:59:37.863Z,6.61
2019-01-17T03:00:42.820Z,6.62
2019-01-17T03:01:48.163Z,6.60
2019-01-17T03:02:53.497Z,6.61
2019-01-17T03:03:58.836Z,6.65
2019-01-17T03:05:03.494Z,6.61
2019-01-17T03:06:09.279Z,6.61
2019-01-17T03:07:14.146Z,6.62
2019-01-17T03:08:19.532Z,6.63
2019-01-17T03:09:24.604Z,6.63
2019-01-17T03:10:30.437Z,6.54
2019-01-17T03:11:36.045Z,6.58
2019-01-17T03:12:41.562Z,6.55
2019-01-17T03:13:47.678Z,6.59
2019-01-17T03:14:53.476Z,6.58
2019-01-17T03:15:58.338Z,6.56
2019-01-17T03:17:03.385Z,6.53
2019-01-17T03:18:08.752Z,6.56
2019-01-17T03:19:13.379Z,6.52
2019-01-17T03:20:18.709Z,6.50
2019-01-17T03:21:24.119Z,6.51
2019-01-17T03:22:29.274Z,6.54
2019-01-17T03:23:34.991Z,6.50
2019-01-17T03:24:43.086Z,6.52
2019-01-17T03:25:47.479Z,6.56
2019-01-17T03:26:52.976Z,6.54
2019-01-17T03:28:00.626Z,6.54
2019-01-17T03:29:05.595Z,6.53
2019-01-17T03:30:14.163Z,6.57
2019-01-17T03:31:19.143Z,6.58
2019-01-17T03:32:23.912Z,6.58
2019-01-17T03:33:29.420Z,6.55
2019-01-17T03:34:34.747Z,6.62
2019-01-17T03:35:40.120Z,6.62
2019-01-17T03:36:45.083Z,6.64
2019-01-17T03:37:49.986Z,6.58
2019-01-17T03:38:55.787Z,6.60
2019-01-17T03:40:00.961Z,6.60
2019-01-17T03:41:06.462Z,6.65
2019-01-17T03:42:12.222Z,6.62
2019-01-17T03:43:17.082Z,6.65
2019-01-17T03:44:22.376Z,6.59
2019-01-17T03:45:27.213Z,6.59
2019-01-17T03:46:32.328Z,6.63
2019-01-17T03:47:38.052Z,6.62
2019-01-17T03:48:43.807Z,6.63
2019-01-17T03:49:48.387Z,6.66
2019-01-17T03:50:54.020Z,6.63
2019-01-17T03:51:59.324Z,6.65
2019-01-17T03:53:04.372Z,6.61
2019-01-17T03:54:10.588Z,6.61
2019-01-17T03:55:17.888Z,6.61
2019-01-17T03:56:22.492Z,6.64
2019-01-17T03:57:27.357Z,6.63
2019-01-17T03:58:33.129Z,6.67
2019-01-17T03:59:39.246Z,6.68
2019-01-17T04:00:44.163Z,6.70
2019-01-17T04:01:49.118Z,6.66
2019-01-17T04:02:57.609Z,6.64
2019-01-17T04:04:02.565Z,6.65
2019-01-17T04:05:08.094Z,6.66
2019-01-17T04:06:12.949Z,6.61
2019-01-17T04:07:18.735Z,6.65
2019-01-17T04:08:23.754Z,6.67
2019-01-17T04:09:29.526Z,6.62
2019-01-17T04:10:37.773Z,6.65
2019-01-17T04:11:42.403Z,6.67
2019-01-17T04:12:46.914Z,6.71
2019-01-17T04:13:51.756Z,6.64
2019-01-17T04:14:57.160Z,6.68
2019-01-17T04:16:02.047Z,6.65
2019-01-17T04:17:07.287Z,6.69
2019-01-17T04:18:12.226Z,6.68
2019-01-17T04:19:17.818Z,6.68
2019-01-17T04:20:23.155Z,6.68
2019-01-17T04:21:28.187Z,6.70
2019-01-17T04:22:33.895Z,6.75
2019-01-17T04:23:38.848Z,6.74
2019-01-17T04:24:43.903Z,6.70
2019-01-17T04:25:50.353Z,6.67
2019-01-17T04:26:55.820Z,6.64
2019-01-17T04:28:01.049Z,6.65
2019-01-17T04:29:06.022Z,6.70
2019-01-17T04:30:16.569Z,6.72
2019-01-17T04:31:22.839Z,6.70
2019-01-17T04:32:28.517Z,6.76
2019-01-17T04:33:34.230Z,6.75
2019-01-17T04:34:39.058Z,6.75
2019-01-17T04:35:44.425Z,6.76
2019-01-17T04:36:49.856Z,6.76
2019-01-17T04:37:55.477Z,6.77
2019-01-17T04:39:00.784Z,6.78
2019-01-17T04:40:06.273Z,6.82
2019-01-17T04:41:12.094Z,6.82
2019-01-17T04:42:17.842Z,6.85
2019-01-17T04:43:22.482Z,6.78
2019-01-17T04:44:27.884Z,6.76
2019-01-17T04:45:33.278Z,6.79
2019-01-17T04:46:38.334Z,6.78
2019-01-17T04:47:43.005Z,6.73
2019-01-17T04:48:48.621Z,6.77
2019-01-17T04:49:54.417Z,6.73
2019-01-17T04:50:59.643Z,6.80
2019-01-17T04:52:04.705Z,6.78
2019-01-17T04:53:10.903Z,6.78
2019-01-17T04:54:16.243Z,6.75
2019-01-17T04:55:21.340Z,6.70
2019-01-17T04:56:26.776Z,6.72
2019-01-17T04:57:32.157Z,6.72
2019-01-17T04:58:37.203Z,6.73
2019-01-17T04:59:42.531Z,6.75
2019-01-17T05:00:47.461Z,6.73
2019-01-17T05:01:53.285Z,6.69
2019-01-17T05:02:58.326Z,6.71
2019-01-17T05:04:03.757Z,6.73
2019-01-17T05:05:08.798Z,6.72
2019-01-17T05:06:14.165Z,6.71
2019-01-17T05:07:22.743Z,6.65
2019-01-17T05:08:28.039Z,6.70
2019-01-17T05:09:33.324Z,6.73
2019-01-17T05:11:28.917Z,6.76
2019-01-17T05:12:34.211Z,6.76
2019-01-17T05:13:39.940Z,6.77
2019-01-17T05:14:45.710Z,6.74
2019-01-17T05:15:51.047Z,6.77
2019-01-17T05:16:57.752Z,6.61
2019-01-17T05:18:02.832Z,6.59
2019-01-17T05:19:08.109Z,6.58
2019-01-17T05:20:14.721Z,6.57
2019-01-17T05:21:23.124Z,6.62
2019-01-17T05:22:29.183Z,6.57
2019-01-17T05:23:34.495Z,6.52
2019-01-17T05:24:40.359Z,6.51
2019-01-17T05:25:45.723Z,6.50
2019-01-17T05:26:51.560Z,6.55
2019-01-17T05:27:56.489Z,6.56
2019-01-17T05:29:01.980Z,6.49
2019-01-17T05:30:08.828Z,6.52
2019-01-17T05:31:14.593Z,6.51
2019-01-17T05:32:19.402Z,6.53
2019-01-17T05:33:24.611Z,6.48
2019-01-17T05:34:29.939Z,6.46
2019-01-17T05:35:35.268Z,6.49
2019-01-17T05:36:40.951Z,6.53
2019-01-17T05:37:46.266Z,6.52
2019-01-17T05:38:53.894Z,6.55
2019-01-17T05:40:00.444Z,6.55
2019-01-17T05:41:05.443Z,6.55
2019-01-17T05:42:11.101Z,6.56
2019-01-17T05:43:16.087Z,6.56
2019-01-17T05:44:21.286Z,6.51
2019-01-17T05:45:26.679Z,6.51
2019-01-17T05:46:31.627Z,6.49
2019-01-17T05:47:36.968Z,6.51
2019-01-17T05:48:42.304Z,6.53
2019-01-17T05:49:48.087Z,6.52
2019-01-17T05:50:53.773Z,6.57
2019-01-17T05:51:59.118Z,6.55
2019-01-17T05:53:04.158Z,6.55
2019-01-17T05:54:09.619Z,6.55
2019-01-17T05:55:19.668Z,6.53
2019-01-17T05:56:22.131Z,6.55
2019-01-17T05:57:30.398Z,6.55
2019-01-17T05:58:36.197Z,6.53
2019-01-17T05:59:41.509Z,6.55
2019-01-17T06:00:47.040Z,6.52
2019-01-17T06:01:52.574Z,6.56
2019-01-17T06:02:57.902Z,6.56
2019-01-17T06:04:02.827Z,6.54
2019-01-17T06:05:07.852Z,6.56
2019-01-17T06:06:13.542Z,6.56
2019-01-17T06:07:19.300Z,6.57
2019-01-17T06:08:25.583Z,6.54
2019-01-17T06:09:31.359Z,6.55
2019-01-17T06:10:36.301Z,6.53
2019-01-17T06:11:41.619Z,6.53
2019-01-17T06:12:46.849Z,6.57
2019-01-17T06:13:51.953Z,6.57
2019-01-17T06:14:56.611Z,6.52
2019-01-17T06:16:01.639Z,6.56
2019-01-17T06:17:06.508Z,6.56
2019-01-17T06:18:11.931Z,6.55
2019-01-17T06:19:17.293Z,6.52
2019-01-17T06:20:22.549Z,6.52
2019-01-17T06:21:28.000Z,6.46
2019-01-17T06:22:33.300Z,6.45
2019-01-17T06:23:38.571Z,6.42
2019-01-17T06:24:43.914Z,6.48
2019-01-17T06:25:49.801Z,6.51
2019-01-17T06:26:55.392Z,6.53
2019-01-17T06:28:00.646Z,6.57
2019-01-17T06:29:06.181Z,6.58
2019-01-17T06:30:13.365Z,6.56
2019-01-17T06:31:18.361Z,6.47
2019-01-17T06:32:23.252Z,6.52
2019-01-17T06:33:29.098Z,6.51
2019-01-17T06:34:34.386Z,6.56
2019-01-17T06:35:39.835Z,6.52
2019-01-17T06:36:44.854Z,6.49
2019-01-17T06:37:50.210Z,6.50
2019-01-17T06:38:56.125Z,6.47
2019-01-17T06:40:00.959Z,6.49
2019-01-17T06:41:05.983Z,6.47
2019-01-17T06:42:11.306Z,6.46
2019-01-17T06:43:16.925Z,6.42
2019-01-17T06:44:21.996Z,6.40
2019-01-17T06:45:27.943Z,6.42
2019-01-17T06:46:33.401Z,6.28
2019-01-17T06:47:39.279Z,6.25
2019-01-17T06:48:44.597Z,6.21
2019-01-17T06:49:50.088Z,6.25
2019-01-17T06:50:55.676Z,6.21
2019-01-17T06:52:04.034Z,6.38
2019-01-17T06:53:09.502Z,6.41
2019-01-17T06:54:14.970Z,6.31
2019-01-17T06:55:20.464Z,6.22
2019-01-17T06:56:25.712Z,6.20
2019-01-17T06:57:31.016Z,6.14
2019-01-17T06:58:36.207Z,6.05
2019-01-17T06:59:41.625Z,6.11
2019-01-17T07:00:47.745Z,6.07
2019-01-17T07:01:53.087Z,6.05
2019-01-17T07:02:58.145Z,6.03
2019-01-17T07:04:03.107Z,6.06
2019-01-17T07:05:08.185Z,6.08
2019-01-17T07:06:12.847Z,6.10
2019-01-17T07:07:18.169Z,6.15
2019-01-17T07:08:23.270Z,6.09
2019-01-17T07:09:28.339Z,6.10
2019-01-17T07:10:33.539Z,6.12
2019-01-17T07:11:38.530Z,6.14
2019-01-17T07:12:44.144Z,6.18
2019-01-17T07:13:49.714Z,6.16
2019-01-17T07:14:55.610Z,6.18
2019-01-17T07:16:00.673Z,6.14
2019-01-17T07:17:05.930Z,6.17
2019-01-17T07:18:11.512Z,6.08
2019-01-17T07:19:17.864Z,6.09
2019-01-17T07:20:23.500Z,6.12
2019-01-17T07:21:29.405Z,6.09
2019-01-17T07:22:35.879Z,6.07
2019-01-17T07:23:40.775Z,6.14
2019-01-17T07:24:46.530Z,6.12
2019-01-17T07:25:51.962Z,6.08
2019-01-17T07:26:56.910Z,6.05
2019-01-17T07:28:02.368Z,6.08
2019-01-17T07:29:08.189Z,6.01
2019-01-17T07:30:19.278Z,6.03
2019-01-17T07:31:24.451Z,6.01
2019-01-17T07:32:33.550Z,5.98
2019-01-17T07:33:38.915Z,6.02
2019-01-17T07:34:44.388Z,5.96
2019-01-17T07:35:50.078Z,5.95
2019-01-17T07:36:58.293Z,5.94
2019-01-17T07:38:03.837Z,5.99
2019-01-17T07:39:14.866Z,6.05
2019-01-17T07:40:20.587Z,6.05
2019-01-17T07:41:26.130Z,6.07
2019-01-17T07:42:31.473Z,6.10
2019-01-17T07:43:37.030Z,6.07
2019-01-17T07:44:42.388Z,6.06
2019-01-17T07:45:47.379Z,6.00
2019-01-17T07:46:52.379Z,6.00
2019-01-17T07:47:57.969Z,5.96
2019-01-17T07:49:03.654Z,5.97
2019-01-17T07:50:16.624Z,5.95
2019-01-17T07:51:27.610Z,5.92
2019-01-17T07:52:36.893Z,5.89
2019-01-17T07:53:42.015Z,5.88
2019-01-17T07:54:48.836Z,5.86
2019-01-17T07:55:54.101Z,5.87
2019-01-17T07:56:59.233Z,5.84
2019-01-17T07:58:04.234Z,5.81
2019-01-17T07:59:10.204Z,5.81
2019-01-17T08:00:17.825Z,5.86
2019-01-17T08:01:22.800Z,5.88
2019-01-17T08:02:27.711Z,5.89
2019-01-17T08:03:33.354Z,5.89
2019-01-17T08:04:38.035Z,5.91
2019-01-17T08:05:44.982Z,5.97
2019-01-17T08:06:49.932Z,6.05
2019-01-17T08:07:55.742Z,6.00
2019-01-17T08:09:01.260Z,6.09
2019-01-17T08:10:08.295Z,6.14
2019-01-17T08:11:13.640Z,6.21
2019-01-17T08:12:20.946Z,6.26
2019-01-17T08:13:26.372Z,6.23
2019-01-17T08:14:31.399Z,6.25
2019-01-17T08:15:36.440Z,6.30
2019-01-17T08:16:47.498Z,6.32
2019-01-17T08:17:52.582Z,6.35
2019-01-17T08:18:58.154Z,6.42
2019-01-17T08:20:04.005Z,6.46
2019-01-17T08:21:11.786Z,6.44
2019-01-17T08:22:16.798Z,6.49
2019-01-17T08:23:21.748Z,6.47
2019-01-17T08:24:26.368Z,6.54
2019-01-17T08:25:31.759Z,6.52
2019-01-17T08:26:37.421Z,6.54
2019-01-17T08:27:42.376Z,6.56
2019-01-17T08:28:48.488Z,6.56
2019-01-17T08:29:56.674Z,6.52
2019-01-17T08:31:04.266Z,6.61
2019-01-17T08:32:09.257Z,6.58
2019-01-17T08:33:14.485Z,6.59
2019-01-17T08:34:19.342Z,6.61
2019-01-17T08:35:24.155Z,6.64
2019-01-17T08:36:29.407Z,6.65
2019-01-17T08:37:34.899Z,6.70
2019-01-17T08:38:40.767Z,6.69
2019-01-17T08:39:46.318Z,6.70
2019-01-17T08:40:51.744Z,6.71
2019-01-17T08:41:56.670Z,6.68
2019-01-17T08:43:02.020Z,6.73
2019-01-17T08:44:07.279Z,6.70
2019-01-17T08:45:12.604Z,6.74
2019-01-17T08:46:18.273Z,6.78
2019-01-17T08:47:23.204Z,6.73
2019-01-17T08:48:29.393Z,6.82
2019-01-17T08:49:35.096Z,6.79
2019-01-17T08:50:40.047Z,6.83
2019-01-17T08:51:47.327Z,6.83
2019-01-17T08:52:59.574Z,6.77
2019-01-17T08:54:04.432Z,6.78
2019-01-17T08:55:10.322Z,6.78
2019-01-17T08:56:15.629Z,6.78
2019-01-17T08:57:21.452Z,6.78
2019-01-17T08:58:26.458Z,6.80
2019-01-17T08:59:32.389Z,6.79
2019-01-17T09:01:21.558Z,6.76
2019-01-17T09:02:26.497Z,6.76
2019-01-17T09:03:31.927Z,6.78
2019-01-17T09:04:37.498Z,6.77
2019-01-17T09:05:42.024Z,6.77
2019-01-17T09:06:46.970Z,6.77
2019-01-17T09:07:52.790Z,6.76
2019-01-17T09:08:57.989Z,6.78
2019-01-17T09:10:02.964Z,6.79
2019-01-17T09:11:08.215Z,6.87
2019-01-17T09:12:13.136Z,6.89
2019-01-17T09:13:18.706Z,6.96
2019-01-17T09:14:23.668Z,7.01
2019-01-17T09:15:30.897Z,7.06
2019-01-17T09:16:36.317Z,7.01
2019-01-17T09:17:41.571Z,7.05
2019-01-17T09:18:46.717Z,7.08
2019-01-17T09:19:51.640Z,6.95
2019-01-17T09:20:56.754Z,7.06
2019-01-17T09:22:02.092Z,7.13
2019-01-17T09:23:07.381Z,7.15
2019-01-17T09:24:12.712Z,7.21
2019-01-17T09:25:18.921Z,7.19
2019-01-17T09:26:25.400Z,7.10
2019-01-17T09:27:34.200Z,7.11
2019-01-17T09:28:52.302Z,7.07
2019-01-17T09:29:59.704Z,7.08
2019-01-17T09:31:04.928Z,7.04
2019-01-17T09:32:10.249Z,7.01
2019-01-17T09:33:15.509Z,6.91
2019-01-17T09:34:21.159Z,7.00
2019-01-17T09:35:26.478Z,7.00
2019-01-17T09:36:31.416Z,6.99
2019-01-17T09:37:35.969Z,7.03
2019-01-17T09:38:41.138Z,6.91
2019-01-17T09:39:46.322Z,6.96
2019-01-17T09:40:55.074Z,6.87
2019-01-17T09:42:00.143Z,6.81
2019-01-17T09:43:04.828Z,6.77
2019-01-17T09:44:09.618Z,6.87
2019-01-17T09:45:15.030Z,6.86
2019-01-17T09:46:19.729Z,6.79
2019-01-17T09:47:24.987Z,6.92
2019-01-17T09:48:30.227Z,6.96
2019-01-17T09:49:35.976Z,6.96
2019-01-17T09:50:41.256Z,6.94
2019-01-17T09:51:46.592Z,6.94
2019-01-17T09:52:51.480Z,6.96
2019-01-17T09:53:58.191Z,6.99
2019-01-17T09:55:03.139Z,7.01
2019-01-17T09:56:08.151Z,7.07
2019-01-17T09:57:16.586Z,7.05
2019-01-17T09:58:21.084Z,7.08
2019-01-17T09:59:26.341Z,7.11
2019-01-17T10:00:32.438Z,7.14
2019-01-17T10:01:37.664Z,7.15
2019-01-17T10:02:42.483Z,7.04
2019-01-17T10:03:48.254Z,7.08
2019-01-17T10:04:53.498Z,7.09
2019-01-17T10:05:58.967Z,7.08
2019-01-17T10:07:03.896Z,7.06
2019-01-17T10:08:09.148Z,7.08
2019-01-17T10:09:14.418Z,7.05
2019-01-17T10:10:19.430Z,7.09
2019-01-17T10:11:24.386Z,7.12
2019-01-17T10:12:29.619Z,7.13
2019-01-17T10:13:35.560Z,7.08
2019-01-17T10:14:40.420Z,7.08
2019-01-17T10:16:05.621Z,7.12
2019-01-17T10:17:20.763Z,7.00
2019-01-17T10:18:51.120Z,7.01
2019-01-17T10:20:36.881Z,7.07
2019-01-17T10:22:08.351Z,7.09
2019-01-17T10:23:53.035Z,7.08
2019-01-17T10:25:57.299Z,7.09
2019-01-17T10:27:28.467Z,7.06
2019-01-17T10:29:14.377Z,6.96
2019-01-17T10:30:55.467Z,6.98
2019-01-17T10:32:35.759Z,6.98
2019-01-17T10:33:51.364Z,6.93
2019-01-17T10:35:21.719Z,6.94
2019-01-17T10:37:13.721Z,6.87
2019-01-17T10:38:46.443Z,6.89
2019-01-17T10:40:40.280Z,6.93
2019-01-17T10:42:11.584Z,6.91
2019-01-17T10:43:51.947Z,6.88
2019-01-17T10:45:25.620Z,6.90
2019-01-17T10:47:05.790Z,6.90
2019-01-17T10:49:03.863Z,6.88
2019-01-17T10:50:29.346Z,6.89
2019-01-17T10:52:03.647Z,6.86
2019-01-17T10:53:49.918Z,6.88
2019-01-17T10:55:25.990Z,6.81
2019-01-17T10:57:14.024Z,6.74
2019-01-17T10:58:29.926Z,6.70
2019-01-17T11:00:08.316Z,6.68
2019-01-17T11:02:08.033Z,6.63
2019-01-17T11:04:09.946Z,6.68
2019-01-17T11:05:31.315Z,6.73
2019-01-17T11:06:52.906Z,6.70
2019-01-17T11:08:59.555Z,6.73
2019-01-17T11:10:41.859Z,6.72
2019-01-17T11:12:15.888Z,6.71
2019-01-17T11:13:43.132Z,6.70
2019-01-17T11:15:24.610Z,6.68
2019-01-17T11:17:04.739Z,6.74
2019-01-17T11:18:43.802Z,6.69
2019-01-17T11:20:06.752Z,6.61
2019-01-17T11:21:54.588Z,6.69
2019-01-17T11:23:33.089Z,6.67
2019-01-17T11:25:16.293Z,6.68
2019-01-17T11:26:45.251Z,6.70
2019-01-17T11:28:26.977Z,6.61
2019-01-17T11:30:11.471Z,6.62
2019-01-17T11:31:39.117Z,6.61
2019-01-17T11:33:14.879Z,6.69
2019-01-17T11:34:58.526Z,6.72
2019-01-17T11:36:33.833Z,6.64
2019-01-17T11:38:13.525Z,6.63
2019-01-17T11:39:33.037Z,6.57
2019-01-17T11:41:19.075Z,6.58
2019-01-17T11:43:07.561Z,6.59
2019-01-17T11:44:50.764Z,6.58
2019-01-17T11:46:35.061Z,6.52
2019-01-17T11:48:10.898Z,6.57
2019-01-17T11:49:46.269Z,6.59
2019-01-17T11:51:03.885Z,6.60
2019-01-17T11:53:01.362Z,6.58
2019-01-17T11:54:35.837Z,6.57
2019-01-17T11:55:59.260Z,6.64
2019-01-17T11:57:26.581Z,6.67
2019-01-17T11:59:21.996Z,6.68
2019-01-17T12:00:54.869Z,6.67
2019-01-17T12:02:49.385Z,6.69
2019-01-17T12:04:26.967Z,6.69
2019-01-17T12:05:31.884Z,6.70
2019-01-17T12:06:37.066Z,6.77
2019-01-17T12:07:42.649Z,6.68
2019-01-17T12:08:47.877Z,6.73
2019-01-17T12:09:53.499Z,6.67
2019-01-17T12:10:59.065Z,6.52
2019-01-17T12:12:04.043Z,6.62
2019-01-17T12:13:09.907Z,6.57
2019-01-17T12:14:14.880Z,6.51
2019-01-17T12:15:19.879Z,6.54
2019-01-17T12:16:24.722Z,6.57
2019-01-17T12:17:29.280Z,6.56
2019-01-17T12:18:33.834Z,6.46
2019-01-17T12:19:39.004Z,6.43
2019-01-17T12:20:43.807Z,6.37
2019-01-17T12:21:50.473Z,6.30
2019-01-17T12:22:55.782Z,6.32
2019-01-17T12:24:00.591Z,6.35
2019-01-17T12:25:06.147Z,6.37
2019-01-17T12:26:11.372Z,6.35
2019-01-17T12:27:16.633Z,6.41
2019-01-17T12:28:21.577Z,6.43
2019-01-17T12:29:26.463Z,6.49
2019-01-17T12:30:31.805Z,6.42
2019-01-17T12:31:37.170Z,6.44
2019-01-17T12:32:42.362Z,6.30
2019-01-17T12:33:47.567Z,6.21
2019-01-17T12:34:52.847Z,6.26
2019-01-17T12:35:57.836Z,6.22
2019-01-17T12:37:03.094Z,6.27
2019-01-17T12:38:07.998Z,6.17
2019-01-17T12:39:14.044Z,6.16
2019-01-17T12:40:18.874Z,6.17
2019-01-17T12:41:24.149Z,6.21
2019-01-17T12:42:29.765Z,6.23
2019-01-17T12:43:34.690Z,6.17
2019-01-17T12:44:39.648Z,6.24
2019-01-17T12:45:44.950Z,6.23
2019-01-17T12:46:50.774Z,6.24
2019-01-17T12:47:57.179Z,6.17
2019-01-17T12:49:02.591Z,6.19
2019-01-17T12:50:16.844Z,6.30
2019-01-17T12:51:22.429Z,6.27
2019-01-17T12:52:27.292Z,6.32
2019-01-17T12:53:33.156Z,6.44
2019-01-17T12:54:38.107Z,6.49
2019-01-17T12:55:42.874Z,6.46
2019-01-17T12:56:53.874Z,6.41
2019-01-17T12:57:55.096Z,6.51
2019-01-17T12:59:00.590Z,6.55
2019-01-17T13:00:07.831Z,6.47
2019-01-17T13:01:12.430Z,6.38
2019-01-17T13:02:17.336Z,6.28
2019-01-17T13:03:22.701Z,6.28
2019-01-17T13:04:27.524Z,6.23
2019-01-17T13:05:32.678Z,6.13
2019-01-17T13:06:37.508Z,6.13
2019-01-17T13:07:42.841Z,6.20
2019-01-17T13:08:48.370Z,6.00
2019-01-17T13:09:53.175Z,6.09
2019-01-17T13:10:58.174Z,6.15
2019-01-17T13:12:02.783Z,6.28
2019-01-17T13:13:08.014Z,6.27
2019-01-17T13:14:12.952Z,6.28
2019-01-17T13:15:18.374Z,6.21
2019-01-17T13:16:23.555Z,6.20
2019-01-17T13:17:28.863Z,6.31
2019-01-17T13:18:34.038Z,6.29
2019-01-17T13:19:39.196Z,6.08
2019-01-17T13:20:44.040Z,6.11
2019-01-17T13:21:48.891Z,6.12
2019-01-17T13:22:53.984Z,6.10
2019-01-17T13:24:01.783Z,6.11
2019-01-17T13:25:08.223Z,6.08
2019-01-17T13:26:13.350Z,6.13
2019-01-17T13:27:19.138Z,6.07
2019-01-17T13:28:24.009Z,6.19
2019-01-17T13:29:28.797Z,6.22
2019-01-17T13:30:34.079Z,6.21
2019-01-17T13:31:38.927Z,6.26
2019-01-17T13:32:43.951Z,6.20
2019-01-17T13:33:49.155Z,6.23
2019-01-17T13:34:53.903Z,6.17
2019-01-17T13:35:59.065Z,6.15
2019-01-17T13:37:03.639Z,6.24
2019-01-17T13:38:08.944Z,6.28
2019-01-17T13:39:14.065Z,6.26
2019-01-17T13:40:21.142Z,6.30
2019-01-17T13:41:25.936Z,6.19
2019-01-17T13:42:31.241Z,6.22
2019-01-17T13:43:36.501Z,6.15
2019-01-17T13:44:41.099Z,6.23
2019-01-17T13:45:45.942Z,6.25
2019-01-17T13:46:50.800Z,6.36
2019-01-17T13:47:55.755Z,6.30
2019-01-17T13:49:00.562Z,6.28
2019-01-17T13:50:05.764Z,6.26
2019-01-17T13:51:10.828Z,6.20
2019-01-17T13:52:16.066Z,6.26
2019-01-17T13:53:20.660Z,6.30
2019-01-17T13:54:25.211Z,6.22
2019-01-17T13:55:30.124Z,6.29
2019-01-17T13:56:35.262Z,6.20
2019-01-17T13:57:40.611Z,6.27
2019-01-17T13:58:46.901Z,6.29
2019-01-17T13:59:51.766Z,6.26
2019-01-17T14:00:57.010Z,6.33
2019-01-17T14:02:01.858Z,6.37
2019-01-17T14:03:07.074Z,6.41
2019-01-17T14:04:12.043Z,6.38
2019-01-17T14:05:17.301Z,6.37
2019-01-17T14:06:23.127Z,6.38
2019-01-17T14:07:27.965Z,6.50
2019-01-17T14:08:32.831Z,6.51
2019-01-17T14:09:37.692Z,6.35
2019-01-17T14:10:42.498Z,6.34
2019-01-17T14:11:47.369Z,6.39
2019-01-17T14:12:52.305Z,6.37
2019-01-17T14:13:57.590Z,6.37
2019-01-17T14:15:02.509Z,6.34
2019-01-17T14:16:08.359Z,6.24
2019-01-17T14:17:13.728Z,6.18
2019-01-17T14:18:19.005Z,6.18
2019-01-17T14:19:23.890Z,6.07
2019-01-17T14:20:28.710Z,6.15
2019-01-17T14:21:33.711Z,6.20
2019-01-17T14:22:38.988Z,6.14
2019-01-17T14:23:44.670Z,6.07
2019-01-17T14:24:49.614Z,6.09
2019-01-17T14:25:54.767Z,6.06
2019-01-17T14:26:59.608Z,6.00
2019-01-17T14:28:04.835Z,5.89
2019-01-17T14:29:09.668Z,6.01
2019-01-17T14:30:17.722Z,5.86
2019-01-17T14:31:23.280Z,5.86
2019-01-17T14:32:28.439Z,5.85
2019-01-17T14:33:33.590Z,5.85
2019-01-17T14:34:38.565Z,5.77
2019-01-17T14:35:44.088Z,5.79
2019-01-17T14:36:49.193Z,5.71
2019-01-17T14:37:54.357Z,5.69
2019-01-17T14:38:59.512Z,5.67
2019-01-17T14:40:04.420Z,5.57
2019-01-17T14:41:10.094Z,5.57
2019-01-17T14:42:15.704Z,5.47
2019-01-17T14:43:20.939Z,5.48
2019-01-17T14:44:27.256Z,5.47
2019-01-17T14:45:31.875Z,5.50
2019-01-17T14:46:37.090Z,5.48
2019-01-17T14:47:42.229Z,5.53
2019-01-17T14:48:47.852Z,5.66
2019-01-17T14:49:52.349Z,5.63
2019-01-17T14:50:57.503Z,5.77
2019-01-17T14:52:02.438Z,5.85
2019-01-17T14:53:07.263Z,5.83
2019-01-17T14:54:12.956Z,5.82
2019-01-17T14:55:18.630Z,5.81
2019-01-17T14:56:23.193Z,5.85
2019-01-17T14:57:28.206Z,5.82
2019-01-17T14:58:33.845Z,5.92
2019-01-17T14:59:38.980Z,5.92
2019-01-17T15:00:44.239Z,5.72
2019-01-17T15:01:49.523Z,5.75
2019-01-17T15:02:54.359Z,5.93
2019-01-17T15:03:59.668Z,5.92
2019-01-17T15:05:04.456Z,5.74
2019-01-17T15:06:09.447Z,5.77
2019-01-17T15:07:14.482Z,5.84
2019-01-17T15:08:20.177Z,5.86
2019-01-17T15:09:25.601Z,5.75
2019-01-17T15:10:33.788Z,5.77
2019-01-17T15:11:38.755Z,5.86
2019-01-17T15:12:44.033Z,5.75
2019-01-17T15:13:48.818Z,5.76
2019-01-17T15:14:53.715Z,5.82
2019-01-17T15:15:58.391Z,5.86
2019-01-17T15:17:03.901Z,5.81
2019-01-17T15:18:09.480Z,5.78
2019-01-17T15:19:14.279Z,5.78
2019-01-17T15:20:20.658Z,5.81
2019-01-17T15:21:25.801Z,5.79
2019-01-17T15:22:30.691Z,5.73
2019-01-17T15:23:35.661Z,5.78
2019-01-17T15:24:40.439Z,5.77
2019-01-17T15:25:45.395Z,5.79
2019-01-17T15:26:50.941Z,5.80
2019-01-17T15:27:56.314Z,5.75
2019-01-17T15:29:01.127Z,5.74
2019-01-17T15:30:07.258Z,5.74
2019-01-17T15:31:12.103Z,5.74
2019-01-17T15:32:16.983Z,5.72
2019-01-17T15:33:21.806Z,5.75
2019-01-17T15:34:27.293Z,5.69
2019-01-17T15:35:32.120Z,5.71
2019-01-17T15:36:37.635Z,5.60